createdAt,value
2019-05-14T00:01:51.981Z,2.33
2019-05-14T00:05:01.688Z,2.50
2019-05-14T00:08:11.462Z,1.80
2019-05-14T00:11:31.304Z,2.27
2019-05-14T00:14:43.802Z,2.43
2019-05-14T00:17:52.325Z,2.30
2019-05-14T00:21:01.878Z,2.30
2019-05-14T00:24:21.727Z,2.10
2019-05-14T00:27:31.222Z,2.00
2019-05-14T00:30:42.275Z,2.40
2019-05-14T00:33:52.885Z,2.30
2019-05-14T00:37:01.748Z,2.27
2019-05-14T00:40:11.832Z,2.20
2019-05-14T00:43:22.169Z,2.10
2019-05-14T00:46:41.148Z,2.33
2019-05-14T00:49:51.742Z,2.67
2019-05-14T00:53:01.925Z,2.57
2019-05-14T00:56:22.840Z,2.70
2019-05-14T00:59:32.262Z,2.43
2019-05-14T01:02:41.754Z,2.73
2019-05-14T01:05:52.156Z,2.50
2019-05-14T01:09:01.477Z,2.33
2019-05-14T01:12:21.437Z,2.40
2019-05-14T01:15:32.407Z,2.50
2019-05-14T01:18:41.584Z,2.47
2019-05-14T01:22:01.690Z,2.53
2019-05-14T01:25:11.994Z,2.50
2019-05-14T01:28:21.621Z,2.50
2019-05-14T01:31:41.743Z,2.03
2019-05-14T01:34:52.484Z,2.37
2019-05-14T01:38:02.736Z,2.50
2019-05-14T01:41:11.942Z,2.50
2019-05-14T01:44:21.370Z,2.47
2019-05-14T01:47:31.889Z,2.40
2019-05-14T01:50:41.437Z,2.73
2019-05-14T01:53:52.108Z,2.80
2019-05-14T01:57:02.084Z,2.63
2019-05-14T02:00:14.177Z,2.73
2019-05-14T02:03:23.252Z,2.80
2019-05-14T02:06:42.518Z,2.90
2019-05-14T02:10:01.722Z,2.60
2019-05-14T02:13:12.369Z,3.30
2019-05-14T02:16:34.465Z,2.63
2019-05-14T02:19:43.432Z,2.47
2019-05-14T02:23:03.640Z,2.80
2019-05-14T02:26:12.593Z,2.77
2019-05-14T02:29:21.500Z,3.00
2019-05-14T02:32:30.293Z,2.63
2019-05-14T02:35:39.762Z,2.87
2019-05-14T02:39:00.396Z,2.97
2019-05-14T02:42:10.376Z,3.13
2019-05-14T02:45:19.927Z,3.20
2019-05-14T02:48:29.532Z,2.87
2019-05-14T02:51:39.092Z,2.70
2019-05-14T02:54:59.712Z,3.27
2019-05-14T02:58:10.024Z,3.17
2019-05-14T03:01:20.015Z,2.97
2019-05-14T03:04:31.906Z,3.27
2019-05-14T03:07:53.045Z,3.17
2019-05-14T03:11:01.913Z,3.20
2019-05-14T03:14:09.314Z,3.23
2019-05-14T03:17:19.916Z,2.70
2019-05-14T03:20:29.102Z,3.20
2019-05-14T03:23:39.250Z,2.90
2019-05-14T03:26:49.949Z,3.60
2019-05-14T03:30:13.018Z,3.27
2019-05-14T03:33:22.518Z,3.53
2019-05-14T03:36:43.468Z,3.70
2019-05-14T03:39:51.842Z,3.03
2019-05-14T03:43:00.507Z,3.13
2019-05-14T03:46:10.137Z,3.40
2019-05-14T03:49:19.876Z,3.70
2019-05-14T03:52:40.927Z,3.40
2019-05-14T03:55:50.686Z,3.33
2019-05-14T03:59:00.224Z,3.67
2019-05-14T04:02:10.823Z,3.30
2019-05-14T04:05:29.782Z,3.47
2019-05-14T04:08:40.332Z,3.43
2019-05-14T04:11:52.061Z,3.50
2019-05-14T04:15:02.020Z,3.60
2019-05-14T04:18:12.642Z,3.10
2019-05-14T04:21:22.891Z,3.37
2019-05-14T04:24:36.873Z,3.00
2019-05-14T04:27:49.112Z,3.80
2019-05-14T04:30:59.766Z,3.17
2019-05-14T04:34:10.787Z,3.03
2019-05-14T04:37:20.109Z,3.13
2019-05-14T04:40:29.786Z,3.67
2019-05-14T04:43:40.130Z,3.10
2019-05-14T04:46:49.641Z,3.20
2019-05-14T04:50:00.235Z,3.40
2019-05-14T04:53:09.020Z,3.13
2019-05-14T04:56:19.593Z,2.73
2019-05-14T04:59:39.880Z,3.30
2019-05-14T05:02:50.224Z,3.50
2019-05-14T05:05:59.388Z,3.40
2019-05-14T05:09:10.055Z,3.27
2019-05-14T05:12:19.738Z,3.60
2019-05-14T05:15:29.138Z,3.80
2019-05-14T05:18:41.017Z,3.20
2019-05-14T05:21:49.977Z,3.10
2019-05-14T05:24:59.083Z,3.40
2019-05-14T05:28:19.309Z,3.30
2019-05-14T05:31:29.406Z,3.33
2019-05-14T05:34:38.770Z,3.47
2019-05-14T05:37:49.040Z,2.43
2019-05-14T05:41:00.339Z,2.23
2019-05-14T05:44:10.261Z,2.60
2019-05-14T05:47:18.431Z,2.03
2019-05-14T05:50:28.718Z,2.00
2019-05-14T05:53:39.283Z,2.17
2019-05-14T05:56:48.241Z,2.00
2019-05-14T05:59:58.888Z,2.07
2019-05-14T06:03:20.978Z,1.90
2019-05-14T06:06:29.776Z,1.90
2019-05-14T06:09:38.765Z,1.57
2019-05-14T06:12:49.069Z,1.90
2019-05-14T06:15:59.171Z,2.17
2019-05-14T06:19:08.455Z,2.03
2019-05-14T06:22:18.881Z,1.70
2019-05-14T06:25:31.128Z,3.00
2019-05-14T06:28:49.996Z,1.60
2019-05-14T06:31:59.114Z,1.53
2019-05-14T06:35:08.778Z,1.40
2019-05-14T06:38:18.490Z,1.80
2019-05-14T06:41:28.366Z,2.10
2019-05-14T06:44:38.540Z,1.83
2019-05-14T06:47:48.718Z,1.40
2019-05-14T06:50:58.340Z,1.47
2019-05-14T06:54:19.600Z,1.90
2019-05-14T06:57:28.602Z,1.73
2019-05-14T07:00:39.425Z,2.13
2019-05-14T07:03:54.514Z,1.80
2019-05-14T07:07:03.149Z,1.10
2019-05-14T07:10:12.309Z,1.50
2019-05-14T07:13:20.846Z,1.20
2019-05-14T07:16:29.456Z,1.37
2019-05-14T07:19:39.992Z,1.30
2019-05-14T07:22:50.322Z,1.50
2019-05-14T07:25:59.258Z,1.40
2019-05-14T07:29:11.263Z,1.20
2019-05-14T07:32:19.167Z,1.50
2019-05-14T07:35:28.854Z,1.30
2019-05-14T07:38:39.249Z,1.50
2019-05-14T07:41:48.519Z,1.10
2019-05-14T07:44:59.390Z,1.10
2019-05-14T07:48:19.025Z,1.00
2019-05-14T07:51:29.456Z,1.30
2019-05-14T07:54:38.941Z,1.27
2019-05-14T07:57:48.276Z,1.60
2019-05-14T08:01:09.471Z,1.20
2019-05-14T08:04:19.914Z,1.13
2019-05-14T08:07:29.235Z,1.10
2019-05-14T08:10:39.230Z,1.23
2019-05-14T08:13:49.372Z,1.10
2019-05-14T08:16:59.508Z,1.43
2019-05-14T08:20:20.136Z,1.70
2019-05-14T08:23:28.901Z,1.17
2019-05-14T08:26:38.241Z,1.23
2019-05-14T08:29:58.963Z,1.23
2019-05-14T08:33:08.956Z,1.20
2019-05-14T08:36:20.468Z,0.90
2019-05-14T08:39:29.054Z,0.90
2019-05-14T08:42:38.338Z,0.93
2019-05-14T08:45:48.827Z,1.10
2019-05-14T08:48:58.636Z,1.27
2019-05-14T08:52:08.772Z,1.30
2019-05-14T08:55:18.449Z,1.10
2019-05-14T08:58:29.674Z,1.30
2019-05-14T09:01:38.804Z,0.93
2019-05-14T09:04:54.125Z,1.33
2019-05-14T09:07:58.270Z,1.10
2019-05-14T09:11:09.807Z,1.30
2019-05-14T09:14:18.926Z,1.37
2019-05-14T09:17:28.901Z,1.13
2019-05-14T09:20:38.210Z,1.20
2019-05-14T09:23:48.374Z,1.20
2019-05-14T09:26:59.221Z,1.20
2019-05-14T09:30:09.666Z,1.47
2019-05-14T09:33:30.300Z,1.10
2019-05-14T09:36:39.718Z,1.07
2019-05-14T09:39:58.843Z,1.13
2019-05-14T09:43:09.208Z,1.30
2019-05-14T09:46:18.679Z,0.90
2019-05-14T09:49:28.241Z,1.20
2019-05-14T09:52:39.188Z,1.00
2019-05-14T09:55:49.118Z,1.00
2019-05-14T09:58:58.691Z,0.80
2019-05-14T10:02:09.134Z,0.70
2019-05-14T10:05:19.503Z,1.20
2019-05-14T10:08:28.692Z,1.00
2019-05-14T10:11:38.334Z,1.13
2019-05-14T10:14:59.220Z,1.10
2019-05-14T10:18:11.681Z,0.90
2019-05-14T10:21:19.110Z,1.67
2019-05-14T10:24:29.115Z,1.07
2019-05-14T10:27:39.133Z,1.10
2019-05-14T10:30:49.075Z,1.00
2019-05-14T10:33:58.848Z,0.93
2019-05-14T10:37:08.693Z,0.87
2019-05-14T10:40:18.540Z,0.90
2019-05-14T10:43:28.767Z,0.80
2019-05-14T10:46:38.419Z,0.90
2019-05-14T10:49:58.421Z,0.60
2019-05-14T10:53:09.111Z,0.90
2019-05-14T10:56:19.319Z,1.10
2019-05-14T10:59:29.380Z,0.50
2019-05-14T11:02:38.940Z,0.70
2019-05-14T11:05:48.255Z,0.80
2019-05-14T11:09:09.231Z,0.93
2019-05-14T11:12:29.655Z,0.70
2019-05-14T11:15:39.526Z,0.90
2019-05-14T11:18:50.023Z,1.30
2019-05-14T11:21:59.005Z,0.80
2019-05-14T11:25:09.130Z,0.50
2019-05-14T11:28:19.134Z,0.90
2019-05-14T11:31:29.877Z,1.10
2019-05-14T11:34:39.104Z,0.70
2019-05-14T11:37:48.180Z,0.90
2019-05-14T11:40:58.779Z,1.00
2019-05-14T11:44:09.127Z,0.90
2019-05-14T11:47:18.146Z,0.90
2019-05-14T11:50:39.515Z,0.90
2019-05-14T11:53:49.476Z,0.90
2019-05-14T11:56:59.014Z,1.00
2019-05-14T12:00:20.270Z,0.80
2019-05-14T12:03:39.743Z,0.90
2019-05-14T12:06:48.689Z,0.90
2019-05-14T12:09:57.236Z,0.90
2019-05-14T12:13:08.378Z,0.97
2019-05-14T12:16:16.275Z,0.60
2019-05-14T12:19:35.474Z,0.73
2019-05-14T12:22:54.496Z,0.90
2019-05-14T12:26:02.311Z,0.83
2019-05-14T12:29:11.637Z,0.90
2019-05-14T12:32:21.432Z,1.30
2019-05-14T12:35:40.513Z,1.10
2019-05-14T12:39:04.382Z,0.90
2019-05-14T12:42:13.075Z,0.90
2019-05-14T12:45:22.032Z,0.80
2019-05-14T12:48:30.962Z,0.80
2019-05-14T12:51:51.448Z,1.10
2019-05-14T12:54:59.927Z,1.00
2019-05-14T12:58:11.111Z,0.60
2019-05-14T13:01:23.249Z,0.73
2019-05-14T13:04:31.070Z,1.10
2019-05-14T13:07:41.827Z,0.80
2019-05-14T13:10:50.852Z,0.80
2019-05-14T13:13:59.668Z,1.00
2019-05-14T13:17:09.256Z,0.73
2019-05-14T13:20:18.660Z,1.00
2019-05-14T13:23:29.179Z,1.10
2019-05-14T13:26:39.010Z,0.83
2019-05-14T13:29:48.804Z,1.07
2019-05-14T13:33:08.869Z,0.60
2019-05-14T13:36:20.432Z,1.30
2019-05-14T13:39:31.542Z,1.00
2019-05-14T13:42:44.262Z,1.40
2019-05-14T13:45:50.474Z,0.87
2019-05-14T13:48:59.414Z,0.70
2019-05-14T13:52:09.327Z,0.90
2019-05-14T13:55:19.377Z,1.17
2019-05-14T13:58:38.751Z,1.10
2019-05-14T14:01:59.187Z,1.00
2019-05-14T14:05:10.182Z,1.20
2019-05-14T14:08:19.350Z,1.00
2019-05-14T14:11:31.217Z,1.03
2019-05-14T14:14:39.603Z,0.93
2019-05-14T14:17:49.613Z,0.73
2019-05-14T14:20:59.772Z,1.00
2019-05-14T14:24:10.387Z,0.90
2019-05-14T14:27:19.727Z,1.07
2019-05-14T14:30:28.569Z,0.90
2019-05-14T14:33:48.755Z,0.90
2019-05-14T14:36:59.326Z,0.90
2019-05-14T14:40:10.746Z,0.90
2019-05-14T14:43:19.841Z,0.80
2019-05-14T14:46:28.803Z,0.60
2019-05-14T14:49:42.283Z,1.10
2019-05-14T14:52:59.847Z,0.70
2019-05-14T14:56:09.481Z,0.83
2019-05-14T14:59:19.543Z,0.70
2019-05-14T15:02:28.944Z,0.80
2019-05-14T15:05:39.038Z,0.80
2019-05-14T15:08:58.802Z,0.70
2019-05-14T15:12:09.126Z,0.90
2019-05-14T15:15:18.663Z,0.77
2019-05-14T15:18:29.090Z,0.93
2019-05-14T15:21:37.901Z,0.73
2019-05-14T15:24:48.767Z,0.70
2019-05-14T15:27:58.397Z,0.83
2019-05-14T15:31:08.723Z,0.67
2019-05-14T15:34:18.906Z,0.83
2019-05-14T15:37:28.596Z,0.90
2019-05-14T15:40:40.021Z,0.73
2019-05-14T15:43:48.518Z,0.80
2019-05-14T15:46:58.731Z,0.70
2019-05-14T15:50:09.960Z,0.90
2019-05-14T15:53:19.479Z,0.63
2019-05-14T15:56:29.862Z,0.83
2019-05-14T15:59:48.758Z,1.07
2019-05-14T16:03:00.315Z,0.87
2019-05-14T16:06:08.942Z,0.63
2019-05-14T16:09:19.429Z,0.80
2019-05-14T16:12:32.003Z,0.90
2019-05-14T16:15:38.905Z,0.70
2019-05-14T16:18:48.107Z,0.90
2019-05-14T16:21:58.611Z,0.80
2019-05-14T16:25:08.826Z,1.00
2019-05-14T16:28:28.709Z,0.60
2019-05-14T16:31:43.214Z,0.93
2019-05-14T16:34:48.935Z,0.80
2019-05-14T16:37:59.197Z,0.90
2019-05-14T16:41:08.007Z,1.00
2019-05-14T16:44:18.794Z,0.90
2019-05-14T16:47:28.616Z,0.80
2019-05-14T16:50:37.411Z,0.77
2019-05-14T16:53:45.909Z,0.90
2019-05-14T16:56:54.540Z,0.90
2019-05-14T17:00:15.328Z,0.87
2019-05-14T17:03:23.999Z,0.60
2019-05-14T17:06:34.858Z,0.77
2019-05-14T17:09:43.524Z,0.70
2019-05-14T17:12:57.240Z,0.60
2019-05-14T17:16:02.421Z,0.70
2019-05-14T17:19:11.109Z,1.00
2019-05-14T17:22:33.522Z,0.70
2019-05-14T17:25:40.136Z,1.00
2019-05-14T17:28:49.838Z,0.70
2019-05-14T17:31:58.444Z,0.83
2019-05-14T17:35:08.334Z,0.80
2019-05-14T17:38:18.487Z,0.77
2019-05-14T17:41:27.271Z,0.90
2019-05-14T17:44:35.968Z,0.90
2019-05-14T17:47:44.770Z,0.80
2019-05-14T17:50:52.412Z,0.80
2019-05-14T17:54:00.991Z,0.80
2019-05-14T17:57:08.720Z,0.77
2019-05-14T18:00:28.745Z,0.90
2019-05-14T18:03:39.701Z,0.80
2019-05-14T18:06:48.844Z,0.80
2019-05-14T18:09:58.826Z,0.80
2019-05-14T18:13:09.226Z,0.80
2019-05-14T18:16:31.427Z,0.83
2019-05-14T18:19:40.099Z,0.90
2019-05-14T18:22:48.774Z,0.70
2019-05-14T18:26:04.871Z,0.70
2019-05-14T18:29:08.796Z,0.70
2019-05-14T18:32:28.204Z,0.70
2019-05-14T18:35:48.355Z,0.70
2019-05-14T18:38:58.545Z,0.83
2019-05-14T18:42:08.635Z,0.70
2019-05-14T18:45:19.015Z,0.73
2019-05-14T18:48:29.016Z,0.50
2019-05-14T18:51:37.848Z,1.00
2019-05-14T18:54:48.348Z,0.80
2019-05-14T18:58:08.553Z,0.73
2019-05-14T19:01:19.670Z,0.50
2019-05-14T19:04:29.613Z,1.10
2019-05-14T19:07:48.830Z,0.70
2019-05-14T19:11:08.321Z,1.10
2019-05-14T19:14:29.256Z,0.97
2019-05-14T19:17:38.535Z,1.10
2019-05-14T19:20:48.625Z,1.00
2019-05-14T19:23:57.420Z,0.90
2019-05-14T19:27:04.530Z,0.97
2019-05-14T19:30:23.519Z,1.00
2019-05-14T19:33:32.182Z,0.80
2019-05-14T19:36:40.774Z,1.07
2019-05-14T19:39:49.406Z,0.80
2019-05-14T19:42:58.075Z,0.97
2019-05-14T19:46:08.756Z,0.93
2019-05-14T19:49:18.426Z,0.87
2019-05-14T19:52:28.303Z,1.10
2019-05-14T19:55:39.191Z,1.10
2019-05-14T19:58:47.948Z,1.07
2019-05-14T20:01:58.809Z,1.00
2019-05-14T20:05:19.084Z,1.23
2019-05-14T20:08:43.952Z,0.90
2019-05-14T20:11:52.506Z,1.10
2019-05-14T20:15:01.138Z,1.03
2019-05-14T20:18:10.447Z,1.00
2019-05-14T20:21:19.021Z,1.17
2019-05-14T20:24:28.305Z,1.10
2019-05-14T20:27:48.007Z,1.30
2019-05-14T20:30:58.637Z,1.00
2019-05-14T20:34:08.463Z,0.90
2019-05-14T20:37:29.112Z,1.20
2019-05-14T20:40:38.071Z,1.13
2019-05-14T20:43:58.629Z,1.30
2019-05-14T20:47:09.173Z,1.20
2019-05-14T20:50:18.293Z,1.37
2019-05-14T20:53:39.463Z,1.43
2019-05-14T20:56:49.303Z,1.57
2019-05-14T20:59:58.870Z,1.27
2019-05-14T21:03:08.971Z,1.70
2019-05-14T21:06:28.107Z,1.50
2019-05-14T21:09:49.262Z,1.27
2019-05-14T21:12:58.056Z,1.37
2019-05-14T21:16:08.380Z,1.50
2019-05-14T21:19:28.331Z,1.30
2019-05-14T21:22:39.700Z,3.80
2019-05-14T21:25:48.326Z,4.50
2019-05-14T21:29:07.946Z,1.90
2019-05-14T21:32:16.505Z,1.40
2019-05-14T21:35:35.437Z,1.37
2019-05-14T21:38:44.071Z,1.50
2019-05-14T21:41:52.556Z,1.60
2019-05-14T21:45:01.065Z,1.03
2019-05-14T21:48:09.782Z,1.27
2019-05-14T21:51:18.263Z,1.40
2019-05-14T21:54:39.305Z,1.00
2019-05-14T21:57:56.076Z,1.30
2019-05-14T22:00:59.262Z,1.37
2019-05-14T22:04:08.757Z,1.70
2019-05-14T22:07:18.470Z,1.17
2019-05-14T22:10:28.771Z,1.20
2019-05-14T22:13:38.227Z,1.10
2019-05-14T22:16:58.385Z,1.30
2019-05-14T22:20:08.571Z,1.50
2019-05-14T22:23:17.890Z,1.37
2019-05-14T22:26:28.198Z,1.30
2019-05-14T22:29:36.928Z,1.20
2019-05-14T22:32:45.532Z,1.40
2019-05-14T22:35:54.332Z,1.20
2019-05-14T22:39:02.849Z,1.37
2019-05-14T22:42:11.415Z,1.37
2019-05-14T22:45:20.519Z,1.33
2019-05-14T22:48:28.993Z,1.20
2019-05-14T22:51:38.444Z,1.27
2019-05-14T22:54:49.070Z,1.23
2019-05-14T22:57:59.373Z,1.20
2019-05-14T23:01:14.711Z,1.50
2019-05-14T23:04:18.398Z,1.23
2019-05-14T23:07:27.104Z,1.70
2019-05-14T23:10:35.804Z,1.40
2019-05-14T23:13:44.380Z,1.30
2019-05-14T23:16:53.007Z,1.33
2019-05-14T23:20:01.603Z,0.93
2019-05-14T23:23:20.455Z,1.43
2019-05-14T23:26:29.050Z,1.50
2019-05-14T23:29:38.524Z,1.33
2019-05-14T23:32:48.975Z,1.13
2019-05-14T23:36:08.778Z,1.40
2019-05-14T23:39:18.525Z,1.20
2019-05-14T23:42:39.226Z,1.30
2019-05-14T23:45:48.275Z,1.33
2019-05-14T23:49:08.868Z,1.00
2019-05-14T23:52:19.415Z,1.30
2019-05-14T23:55:28.880Z,1.33
2019-05-14T23:58:37.901Z,1.30
